^^
Station Historical Data
Daily Summary for May 24, 2017 Units:  Metric    English   Both
« Previous Day
Next Day »
Daily Weekly Monthly Yearly Custom
  High: Low: Average:
Temperature: 28.5 °C 12.3 °C 17.1 °C
Dew Point: 0.7 °C -2.6 °C -1.2 °C
Humidity: 39% 15% 30%
Wind Speed: 19.5km/h 0km/h 2.3km/h
Wind Gust: 29km/h - -
Wind- - WNW
Pressure: 1015.8 hPa 1011.4 hPa -
Precipitation: 0 mm    
Historical Graphs
 
 
Tabular Data for May 24, 2017
Time Temperature Dew Point Pressure Wind Wind Speed Wind Gust Humidity Rainfall Rate (Hourly) solar Conditions
00:07 15.8 °C -2.2 °C 1014.4 hPa Calm     29% 0 mm 0.0 W/m2
00:13 15.4 °C -2.1 °C 1014.4 hPa Calm     30% 0 mm 0.0 W/m2
00:23 15.2 °C -1.8 °C 1014.4 hPa Calm     31% 0 mm 0.0 W/m2
00:28 14.8 °C -1.7 °C 1014.4 hPa Calm     32% 0 mm 0.0 W/m2
00:34 15.2 °C -1.8 °C 1014.4 hPa Calm     31% 0 mm 0.0 W/m2
00:55 14.7 °C -2.3 °C 1014.4 hPa Calm     31% 0 mm 0.0 W/m2
01:00 14.7 °C -1.8 °C 1014.4 hPa Calm     32% 0 mm 0.0 W/m2
01:05 14.7 °C -1.8 °C 1014.4 hPa Calm     32% 0 mm 0.0 W/m2
01:10 14.6 °C -1.9 °C 1014.1 hPa Calm     32% 0 mm 0.0 W/m2
01:15 14.6 °C -1.9 °C 1014.4 hPa Calm     32% 0 mm 0.0 W/m2
01:20 14.7 °C -1.8 °C 1014.4 hPa Calm     32% 0 mm 0.0 W/m2
01:30 14.8 °C -1.7 °C 1014.4 hPa Calm     32% 0 mm 0.0 W/m2
01:36 14.7 °C -1.8 °C 1014.4 hPa Calm     32% 0 mm 0.0 W/m2
01:41 14.6 °C -1.9 °C 1014.4 hPa Calm     32% 0 mm 0.0 W/m2
01:46 14.4 °C -2.1 °C 1014.4 hPa Calm     32% 0 mm 0.0 W/m2
01:51 14.2 °C -1.9 °C 1014.1 hPa Calm     33% 0 mm 0.0 W/m2
01:56 14.1 °C -1.9 °C 1014.1 hPa Calm     33% 0 mm 0.0 W/m2
02:01 14.1 °C -1.9 °C 1014.1 hPa Calm     33% 0 mm 0.0 W/m2
02:06 14.1 °C -1.9 °C 1014.1 hPa Calm     33% 0 mm 0.0 W/m2
02:12 14.1 °C -1.9 °C 1014.1 hPa Calm     33% 0 mm 0.0 W/m2
02:18 14 °C -2 °C 1014.1 hPa Calm     33% 0 mm 0.0 W/m2
02:23 13.7 °C -2.3 °C 1013.8 hPa Calm     33% 0 mm 0.0 W/m2
02:28 13.5 °C -2.1 °C 1014.1 hPa Calm     34% 0 mm 0.0 W/m2
02:33 13.4 °C -2.2 °C 1014.1 hPa Calm     34% 0 mm 0.0 W/m2
02:38 13.4 °C -1.8 °C 1014.1 hPa Calm     35% 0 mm 0.0 W/m2
02:43 13.6 °C -1.6 °C 1014.1 hPa Calm     35% 0 mm 0.0 W/m2
02:49 14.1 °C -1.5 °C 1014.1 hPa Calm     34% 0 mm 0.0 W/m2
02:54 14.3 °C -1.8 °C 1014.1 hPa Calm     33% 0 mm 0.0 W/m2
02:59 14.1 °C -1.9 °C 1014.1 hPa Calm     33% 0 mm 0.0 W/m2
03:04 13.7 °C -1.9 °C 1014.1 hPa Calm     34% 0 mm 0.0 W/m2
03:09 13.3 °C -2.2 °C 1014.1 hPa Calm     34% 0 mm 0.0 W/m2
03:14 13.3 °C -1.8 °C 1014.1 hPa Calm     35% 0 mm 0.0 W/m2
03:20 13.2 °C -1.9 °C 1014.1 hPa Calm     35% 0 mm 0.0 W/m2
03:25 13 °C -2.1 °C 1014.1 hPa Calm     35% 0 mm 0.0 W/m2
03:35 12.8 °C -2.3 °C 1014.1 hPa Calm     35% 0 mm 0.0 W/m2
03:40 12.5 °C -2.6 °C 1014.1 hPa Calm     35% 0 mm 0.0 W/m2
03:45 12.3 °C -2.4 °C 1014.1 hPa Calm     36% 0 mm 0.0 W/m2
03:51 12.3 °C -2.4 °C 1014.1 hPa Calm     36% 0 mm 0.0 W/m2
03:56 12.5 °C -2.2 °C 1014.1 hPa Calm     36% 0 mm 0.0 W/m2
04:01 12.6 °C -2.5 °C 1013.8 hPa Calm     35% 0 mm 0.0 W/m2
04:06 12.5 °C -2.2 °C 1013.8 hPa Calm     36% 0 mm 0.0 W/m2
04:12 12.7 °C -2 °C 1013.8 hPa Calm     36% 0 mm 0.0 W/m2
04:17 12.7 °C -2 °C 1013.8 hPa Calm     36% 0 mm 0.0 W/m2
04:22 12.7 °C -2.4 °C 1014.1 hPa Calm     35% 0 mm 0.0 W/m2
04:27 12.7 °C -2 °C 1014.1 hPa Calm     36% 0 mm 0.0 W/m2
04:32 12.7 °C -2 °C 1014.1 hPa Calm     36% 0 mm 0.0 W/m2
04:37 12.8 °C -1.9 °C 1014.1 hPa Calm     36% 0 mm 0.0 W/m2
04:43 12.7 °C -2 °C 1014.1 hPa Calm     36% 0 mm 0.0 W/m2
04:48 12.8 °C -1.9 °C 1014.1 hPa Calm     36% 0 mm 0.0 W/m2
04:53 12.8 °C -1.9 °C 1014.1 hPa Calm     36% 0 mm 0.0 W/m2
04:58 12.8 °C -1.9 °C 1014.1 hPa Calm     36% 0 mm 0.0 W/m2
05:04 12.9 °C -1.8 °C 1014.1 hPa Calm     36% 0 mm 0.0 W/m2
05:09 13 °C -1.7 °C 1014.1 hPa Calm     36% 0 mm 0.0 W/m2
05:14 13.1 °C -1.6 °C 1014.1 hPa Calm     36% 0 mm 0.0 W/m2
05:19 13.1 °C -1.6 °C 1014.1 hPa Calm     36% 0 mm 0.0 W/m2
05:24 12.9 °C -2.2 °C 1014.1 hPa Calm     35% 0 mm 0.0 W/m2
05:30 12.6 °C -2.1 °C 1014.4 hPa Calm     36% 0 mm 0.0 W/m2
05:35 12.4 °C -1.9 °C 1014.4 hPa Calm     37% 0 mm 0.0 W/m2
05:40 12.4 °C -1.9 °C 1014.4 hPa Calm     37% 0 mm 0.0 W/m2
05:45 12.4 °C -1.9 °C 1014.4 hPa Calm     37% 0 mm 0.0 W/m2
05:51 12.3 °C -2 °C 1014.4 hPa Calm     37% 0 mm 0.0 W/m2
06:01 12.4 °C -1.5 °C 1014.4 hPa Calm     38% 0 mm 0.0 W/m2
06:11 12.5 °C -1.4 °C 1014.4 hPa Calm     38% 0 mm 0.0 W/m2
06:17 13.2 °C -1.2 °C 1014.8 hPa Calm     37% 0 mm 0.0 W/m2
06:22 13.3 °C -1.5 °C 1014.8 hPa Calm     36% 0 mm 0.0 W/m2
06:32 13.4 °C -1.4 °C 1014.8 hPa Calm     36% 0 mm 0.0 W/m2
06:38 13.3 °C -1.5 °C 1014.8 hPa Calm     36% 0 mm 11.0 W/m2
06:48 12.9 °C -1.8 °C 1014.8 hPa Calm     36% 0 mm 14.0 W/m2
07:03 13.4 °C -1.4 °C 1014.8 hPa Calm     36% 0 mm 21.0 W/m2
07:08 13.4 °C -1.4 °C 1015.1 hPa Calm     36% 0 mm 25.0 W/m2
07:13 13.3 °C -1.5 °C 1015.1 hPa Calm     36% 0 mm 28.0 W/m2
07:19 13.2 °C -1.6 °C 1015.1 hPa Calm     36% 0 mm 44.0 W/m2
07:23 13.4 °C -1 °C 1015.1 hPa Calm     37% 0 mm 109.0 W/m2
07:29 14.2 °C -0.7 °C 1015.1 hPa Calm     36% 0 mm 125.0 W/m2
07:44 16.1 °C -0.6 °C 1015.1 hPa Calm     32% 0 mm 183.0 W/m2
09:16 22.2 °C 0.7 °C 1015.8 hPa Calm     24% 0 mm 446.0 W/m2
09:26 22.6 °C 0.4 °C 1015.5 hPa North 3.2 km/h 9.7 km/h 23% 0 mm 473.0 W/m2
09:36 22.8 °C 0 °C 1015.8 hPa North 7.9 km/h 11.3 km/h 22% 0 mm 494.0 W/m2
09:46 22.9 °C 0.1 °C 1015.8 hPa Calm   14.5 km/h 22% 0 mm 508.0 W/m2
09:57 23 °C 0.1 °C 1015.8 hPa North 7.9 km/h 9.7 km/h 22% 0 mm 531.0 W/m2
10:06 22.7 °C -0.1 °C 1015.8 hPa Calm   12.9 km/h 22% 0 mm 547.0 W/m2
10:11 22.8 °C 0 °C 1015.5 hPa Calm   6.4 km/h 22% 0 mm 557.0 W/m2
10:16 23.1 °C 0.2 °C 1015.5 hPa North 11.1 km/h 14.5 km/h 22% 0 mm 566.0 W/m2
10:31 23.2 °C -0.3 °C 1015.5 hPa North 7.9 km/h 12.9 km/h 21% 0 mm 578.0 W/m2
10:40 23.4 °C -0.2 °C 1015.1 hPa Calm   9.7 km/h 21% 0 mm 575.0 W/m2
10:50 23.6 °C 0 °C 1015.1 hPa North 9.7 km/h 14.5 km/h 21% 0 mm 598.0 W/m2
11:00 24.2 °C 0.5 °C 1015.1 hPa Calm     21% 0 mm 599.0 W/m2
11:10 24.5 °C 0.1 °C 1015.1 hPa North 13 km/h 17.7 km/h 20% 0 mm 613.0 W/m2
11:18 24.7 °C 0.2 °C 1014.8 hPa North 6.4 km/h 9.7 km/h 20% 0 mm 552.0 W/m2
13:24 27.8 °C -0.3 °C 1012.4 hPa Calm   11.3 km/h 16% 0 mm 550.0 W/m2
13:38 28.2 °C 0 °C 1012.4 hPa Calm   6.4 km/h 16% 0 mm 533.0 W/m2
13:44 28.3 °C -0.8 °C 1012.4 hPa NNW 11.1 km/h 24.1 km/h 15% 0 mm 517.0 W/m2
14:03 28.4 °C -0.7 °C 1012.1 hPa NNW 7.9 km/h 17.7 km/h 15% 0 mm 489.0 W/m2
14:12 28.2 °C 0 °C 1012.1 hPa Calm     16% 0 mm 478.0 W/m2
14:21 28.5 °C -0.7 °C 1011.7 hPa Calm   12.9 km/h 15% 0 mm 429.0 W/m2
14:26 28.5 °C -0.7 °C 1011.7 hPa NNW 17.7 km/h 19.3 km/h 15% 0 mm 429.0 W/m2
14:35 28.4 °C -0.7 °C 1011.7 hPa Calm     15% 0 mm 367.0 W/m2
16:29 28.4 °C -0.7 °C 1011.4 hPa NW 16.3 km/h 17.7 km/h 15% 0 mm 54.0 W/m2
16:38 28.3 °C -0.8 °C 1011.4 hPa NW 13 km/h 16.1 km/h 15% 0 mm 32.0 W/m2
16:44 28 °C -1 °C 1011.4 hPa West 19.5 km/h 29 km/h 15% 0 mm 23.0 W/m2
16:56 26.8 °C -1.1 °C 1011.7 hPa WSW 19.5 km/h 22.5 km/h 16% 0 mm 12.0 W/m2
17:05 26 °C -0.9 °C 1011.7 hPa WSW 17.7 km/h 22.5 km/h 17% 0 mm 5.0 W/m2
17:15 25.4 °C -0.6 °C 1012.1 hPa WSW 14.3 km/h 17.7 km/h 18% 0 mm 0.0 W/m2
17:25 24.9 °C -0.3 °C 1012.1 hPa WSW 11.1 km/h 16.1 km/h 19% 0 mm 0.0 W/m2
17:36 24.6 °C -0.6 °C 1012.1 hPa WSW 7.9 km/h 14.5 km/h 19% 0 mm 0.0 W/m2
17:42 24.2 °C -0.9 °C 1012.4 hPa WSW 11.1 km/h 12.9 km/h 19% 0 mm 0.0 W/m2
17:52 23.9 °C -1.1 °C 1012.8 hPa WSW 11.1 km/h 12.9 km/h 19% 0 mm 0.0 W/m2
18:07 23.4 °C -0.8 °C 1012.8 hPa WSW 9.7 km/h 11.3 km/h 20% 0 mm 0.0 W/m2
18:22 22.8 °C -0.7 °C 1012.8 hPa WSW 9.7 km/h 9.7 km/h 21% 0 mm 0.0 W/m2
18:33 22.2 °C -0.5 °C 1013.1 hPa WSW 7.9 km/h 9.7 km/h 22% 0 mm 0.0 W/m2
18:42 21.7 °C -0.3 °C 1013.1 hPa WSW 7.9 km/h 8 km/h 23% 0 mm 0.0 W/m2
18:57 21.5 °C -0.5 °C 1013.4 hPa WSW 4.7 km/h 4.8 km/h 23% 0 mm 0.0 W/m2
19:04 21 °C -0.3 °C 1013.4 hPa WSW 6.4 km/h 8 km/h 24% 0 mm 0.0 W/m2
19:53 18.9 °C -1 °C 1014.1 hPa Calm     26% 0 mm 0.0 W/m2
20:09 18.3 °C -1 °C 1014.1 hPa Calm     27% 0 mm 0.0 W/m2
20:24 18.1 °C -0.2 °C 1014.4 hPa Calm     29% 0 mm 0.0 W/m2
20:34 18.1 °C -0.2 °C 1014.4 hPa Calm     29% 0 mm 0.0 W/m2
20:44 17.8 °C -0.5 °C 1014.4 hPa Calm     29% 0 mm 0.0 W/m2
20:51 17.4 °C -0.4 °C 1014.4 hPa Calm     30% 0 mm 0.0 W/m2
22:54 14.2 °C 0.1 °C 1015.1 hPa Calm     38% 0 mm 0.0 W/m2
23:03 13.9 °C -0.2 °C 1015.1 hPa Calm     38% 0 mm 0.0 W/m2
23:13 13.8 °C -0.6 °C 1015.1 hPa Calm     37% 0 mm 0.0 W/m2
23:19 13.6 °C -0.8 °C 1015.1 hPa Calm     37% 0 mm 0.0 W/m2
23:25 13.6 °C -0.1 °C 1015.1 hPa Calm     39% 0 mm 0.0 W/m2
23:34 13.4 °C -0.3 °C 1015.1 hPa Calm     39% 0 mm 0.0 W/m2
23:43 13.1 °C -0.5 °C 1015.1 hPa Calm     39% 0 mm 0.0 W/m2
23:49 13 °C -1 °C 1015.1 hPa Calm     38% 0 mm 0.0 W/m2
23:59 12.7 °C -0.9 °C 1015.1 hPa Calm     39% 0 mm 0.0 W/m2
Canyon Roadhouse, Fishriver Canyon, Namibia
Compliments of Weather Underground - 2.25 mb